Tidelands — WX5026 — position and weather

sailwx.info

Track history (hours):
 
Tides and Currents Weather Stations Pressure Air Temp Water Temp Dewpoint Dewpoint Depression Visibility Wind Speed Wind Dir Waves Ship Positions

Tidelands

Owner: OMEGA PROTEIN INC., Moss Point, MS. More information available from US FCC via Universal Licensing System and Coast Guard Vessel Documentation Center.

Last reported at 2017-Dec-07 13:48 UTC. Time now 2017-Dec-12 12:28 UTC.
Position N 36°52' W 075°50'.

Length 51 m; draft 3 m.

Type: Fishing. MMSI: 367108820.

Date/timePositionNaut miles runAvg speedWind from/ knotsBaromVisibWave heightAir tempDewpointWater temp
2017-Dec-07 13:48N 36°52' W 075°50'512.4
2017-Dec-07 13:23N 36°47' W 075°53'1 3.6
2017-Dec-07 13:00N 36°46' W 075°54'2 3.3
2017-Dec-07 12:30N 36°47' W 075°54'611.1
2017-Dec-07 11:58N 36°53' W 075°56'611.2
2017-Dec-07 11:27N 36°58' W 076°00'0 0.4
2017-Dec-07 11:00N 36°58' W 076°00'2 3.4
2017-Dec-07 10:26N 36°58' W 075°58'3 6.4
2017-Dec-07 09:59N 36°58' W 076°01'  
2017-Nov-29 12:46N 37°05' W 075°46'0 0.8
2017-Nov-29 12:30N 37°05' W 075°46'5 8.7
2017-Nov-29 11:56N 37°10' W 075°44'0 0.6
2017-Nov-29 11:28N 37°10' W 075°44'1 2.7
2017-Nov-29 11:00N 37°09' W 075°45'5 9.5
2017-Nov-29 10:30N 37°06' W 075°48'1 1.7
2017-Nov-29 10:00N 37°05' W 075°49'0 0.0
2017-Nov-29 09:30N 37°05' W 075°49'  
Track history (hours):
 
Tides and Currents Weather Stations Pressure Air Temp Water Temp Dewpoint Dewpoint Depression Visibility Wind Speed Wind Dir Waves Ship Positions

Tidelands

Owner: OMEGA PROTEIN INC., Moss Point, MS. More information available from US FCC via Universal Licensing System and Coast Guard Vessel Documentation Center.

Last reported at 2017-Dec-07 13:48 UTC. Time now 2017-Dec-12 12:28 UTC.
Position N 36°52' W 075°50'.

Length 51 m; draft 3 m.

Type: Fishing. MMSI: 367108820.

Date/timePositionNaut miles runAvg speedWind from/ knotsBaromVisibWave heightAir tempDewpointWater temp
2017-Dec-07 13:48N 36°52' W 075°50'512.4
2017-Dec-07 13:23N 36°47' W 075°53'1 3.6
2017-Dec-07 13:00N 36°46' W 075°54'2 3.3
2017-Dec-07 12:30N 36°47' W 075°54'611.1
2017-Dec-07 11:58N 36°53' W 075°56'611.2
2017-Dec-07 11:27N 36°58' W 076°00'0 0.4
2017-Dec-07 11:00N 36°58' W 076°00'2 3.4
2017-Dec-07 10:26N 36°58' W 075°58'3 6.4
2017-Dec-07 09:59N 36°58' W 076°01'  
2017-Nov-29 12:46N 37°05' W 075°46'0 0.8
2017-Nov-29 12:30N 37°05' W 075°46'5 8.7
2017-Nov-29 11:56N 37°10' W 075°44'0 0.6
2017-Nov-29 11:28N 37°10' W 075°44'1 2.7
2017-Nov-29 11:00N 37°09' W 075°45'5 9.5
2017-Nov-29 10:30N 37°06' W 075°48'1 1.7
2017-Nov-29 10:00N 37°05' W 075°49'0 0.0
2017-Nov-29 09:30N 37°05' W 075°49'  

Dump ship's entire track history